sensor_id;sensor_type;location;lat;lon;timestamp;P1;durP1;ratioP1;P2;durP2;ratioP2
11000;SDS011;5553;48.506;8.870;2023-04-01T00:02:14;1.30;;;0.70;;
11000;SDS011;5553;48.506;8.870;2023-04-01T00:04:45;3.70;;;0.50;;
11000;SDS011;5553;48.506;8.870;2023-04-01T00:07:14;1.40;;;0.57;;
11000;SDS011;5553;48.506;8.870;2023-04-01T00:09:42;1.33;;;0.33;;
11000;SDS011;5553;48.506;8.870;2023-04-01T00:12:10;0.90;;;0.40;;
11000;SDS011;5553;48.506;8.870;2023-04-01T00:14:39;0.93;;;0.40;;
11000;SDS011;5553;48.506;8.870;2023-04-01T00:17:07;0.90;;;0.40;;
11000;SDS011;5553;48.506;8.870;2023-04-01T00:19:35;1.43;;;0.50;;
11000;SDS011;5553;48.506;8.870;2023-04-01T00:22:06;0.80;;;0.30;;
11000;SDS011;5553;48.506;8.870;2023-04-01T00:24:36;1.00;;;0.57;;
11000;SDS011;5553;48.506;8.870;2023-04-01T00:27:05;2.70;;;0.57;;
11000;SDS011;5553;48.506;8.870;2023-04-01T00:29:33;1.60;;;0.43;;
11000;SDS011;5553;48.506;8.870;2023-04-01T00:32:02;2.53;;;0.37;;
11000;SDS011;5553;48.506;8.870;2023-04-01T00:34:30;2.73;;;0.40;;
11000;SDS011;5553;48.506;8.870;2023-04-01T00:36:58;5.10;;;0.37;;
11000;SDS011;5553;48.506;8.870;2023-04-01T00:39:30;0.60;;;0.50;;
11000;SDS011;5553;48.506;8.870;2023-04-01T00:41:59;1.77;;;0.50;;
11000;SDS011;5553;48.506;8.870;2023-04-01T00:44:30;1.17;;;0.63;;
11000;SDS011;5553;48.506;8.870;2023-04-01T00:47:00;2.07;;;0.53;;
11000;SDS011;5553;48.506;8.870;2023-04-01T00:49:29;3.50;;;1.13;;
11000;SDS011;5553;48.506;8.870;2023-04-01T00:52:01;0.47;;;0.40;;
11000;SDS011;5553;48.506;8.870;2023-04-01T00:54:34;0.93;;;0.40;;
11000;SDS011;5553;48.506;8.870;2023-04-01T00:57:05;1.70;;;0.40;;
11000;SDS011;5553;48.506;8.870;2023-04-01T00:59:37;1.80;;;0.47;;
11000;SDS011;5553;48.506;8.870;2023-04-01T01:02:08;0.63;;;0.63;;
11000;SDS011;5553;48.506;8.870;2023-04-01T01:04:40;0.47;;;0.30;;
11000;SDS011;5553;48.506;8.870;2023-04-01T01:07:12;0.77;;;0.20;;
11000;SDS011;5553;48.506;8.870;2023-04-01T01:09:51;1.00;;;0.53;;
11000;SDS011;5553;48.506;8.870;2023-04-01T01:12:30;1.10;;;0.40;;
11000;SDS011;5553;48.506;8.870;2023-04-01T01:15:06;5.20;;;0.50;;
11000;SDS011;5553;48.506;8.870;2023-04-01T01:17:44;1.63;;;0.27;;
11000;SDS011;5553;48.506;8.870;2023-04-01T01:20:24;1.80;;;0.30;;
11000;SDS011;5553;48.506;8.870;2023-04-01T01:23:14;1.83;;;0.30;;
11000;SDS011;5553;48.506;8.870;2023-04-01T01:26:16;1.23;;;0.20;;
11000;SDS011;5553;48.506;8.870;2023-04-01T01:29:12;0.50;;;0.20;;
11000;SDS011;5553;48.506;8.870;2023-04-01T01:32:02;0.40;;;0.33;;
11000;SDS011;5553;48.506;8.870;2023-04-01T01:34:35;0.40;;;0.20;;
11000;SDS011;5553;48.506;8.870;2023-04-01T01:37:14;0.50;;;0.20;;
11000;SDS011;5553;48.506;8.870;2023-04-01T01:39:45;0.30;;;0.20;;
11000;SDS011;5553;48.506;8.870;2023-04-01T01:42:17;0.50;;;0.30;;
11000;SDS011;5553;48.506;8.870;2023-04-01T01:44:48;0.70;;;0.30;;
11000;SDS011;5553;48.506;8.870;2023-04-01T01:47:18;1.63;;;0.30;;
11000;SDS011;5553;48.506;8.870;2023-04-01T01:49:50;0.37;;;0.20;;
11000;SDS011;5553;48.506;8.870;2023-04-01T01:52:24;1.20;;;0.20;;
11000;SDS011;5553;48.506;8.870;2023-04-01T01:54:55;0.40;;;0.30;;
11000;SDS011;5553;48.506;8.870;2023-04-01T01:57:26;0.30;;;0.20;;
11000;SDS011;5553;48.506;8.870;2023-04-01T01:59:58;0.60;;;0.20;;
11000;SDS011;5553;48.506;8.870;2023-04-01T02:02:29;0.40;;;0.30;;
11000;SDS011;5553;48.506;8.870;2023-04-01T02:04:59;0.90;;;0.30;;
11000;SDS011;5553;48.506;8.870;2023-04-01T02:07:32;0.50;;;0.30;;
11000;SDS011;5553;48.506;8.870;2023-04-01T02:10:04;0.70;;;0.30;;
11000;SDS011;5553;48.506;8.870;2023-04-01T02:12:33;0.60;;;0.20;;
11000;SDS011;5553;48.506;8.870;2023-04-01T02:15:05;1.37;;;0.30;;
11000;SDS011;5553;48.506;8.870;2023-04-01T02:17:38;0.50;;;0.20;;
11000;SDS011;5553;48.506;8.870;2023-04-01T02:20:12;0.70;;;0.30;;
11000;SDS011;5553;48.506;8.870;2023-04-01T02:22:46;0.57;;;0.30;;
11000;SDS011;5553;48.506;8.870;2023-04-01T02:25:18;0.60;;;0.20;;
11000;SDS011;5553;48.506;8.870;2023-04-01T02:27:50;1.13;;;0.20;;
11000;SDS011;5553;48.506;8.870;2023-04-01T02:30:20;2.77;;;0.63;;
11000;SDS011;5553;48.506;8.870;2023-04-01T02:32:50;0.37;;;0.20;;
11000;SDS011;5553;48.506;8.870;2023-04-01T02:35:19;0.57;;;0.23;;
11000;SDS011;5553;48.506;8.870;2023-04-01T02:37:50;1.23;;;0.37;;
11000;SDS011;5553;48.506;8.870;2023-04-01T02:42:54;1.13;;;0.30;;
11000;SDS011;5553;48.506;8.870;2023-04-01T02:45:23;2.20;;;0.33;;
11000;SDS011;5553;48.506;8.870;2023-04-01T02:47:51;1.33;;;0.20;;
11000;SDS011;5553;48.506;8.870;2023-04-01T02:50:19;2.33;;;0.20;;
11000;SDS011;5553;48.506;8.870;2023-04-01T02:52:50;0.40;;;0.30;;
11000;SDS011;5553;48.506;8.870;2023-04-01T02:55:19;0.30;;;0.20;;
11000;SDS011;5553;48.506;8.870;2023-04-01T02:57:47;0.53;;;0.20;;
11000;SDS011;5553;48.506;8.870;2023-04-01T03:00:16;0.40;;;0.20;;
11000;SDS011;5553;48.506;8.870;2023-04-01T03:02:45;1.60;;;0.50;;
11000;SDS011;5553;48.506;8.870;2023-04-01T03:05:13;0.57;;;0.30;;
11000;SDS011;5553;48.506;8.870;2023-04-01T03:07:41;0.47;;;0.20;;
11000;SDS011;5553;48.506;8.870;2023-04-01T03:10:12;0.40;;;0.20;;
11000;SDS011;5553;48.506;8.870;2023-04-01T03:12:41;1.17;;;0.30;;
11000;SDS011;5553;48.506;8.870;2023-04-01T03:15:09;0.30;;;0.20;;
11000;SDS011;5553;48.506;8.870;2023-04-01T03:17:39;0.40;;;0.20;;
11000;SDS011;5553;48.506;8.870;2023-04-01T03:20:08;0.77;;;0.20;;
11000;SDS011;5553;48.506;8.870;2023-04-01T03:22:38;1.07;;;0.40;;
11000;SDS011;5553;48.506;8.870;2023-04-01T03:25:07;0.30;;;0.20;;
11000;SDS011;5553;48.506;8.870;2023-04-01T03:27:40;0.40;;;0.20;;
11000;SDS011;5553;48.506;8.870;2023-04-01T03:30:08;0.30;;;0.20;;
11000;SDS011;5553;48.506;8.870;2023-04-01T03:32:37;0.40;;;0.30;;
11000;SDS011;5553;48.506;8.870;2023-04-01T03:35:05;1.70;;;0.20;;
11000;SDS011;5553;48.506;8.870;2023-04-01T03:37:35;0.70;;;0.20;;
11000;SDS011;5553;48.506;8.870;2023-04-01T03:40:04;3.20;;;0.30;;
11000;SDS011;5553;48.506;8.870;2023-04-01T03:42:33;1.40;;;0.20;;
11000;SDS011;5553;48.506;8.870;2023-04-01T03:45:04;0.40;;;0.30;;
11000;SDS011;5553;48.506;8.870;2023-04-01T03:47:34;0.40;;;0.20;;
11000;SDS011;5553;48.506;8.870;2023-04-01T03:50:02;0.40;;;0.20;;
11000;SDS011;5553;48.506;8.870;2023-04-01T03:52:30;1.03;;;0.30;;
11000;SDS011;5553;48.506;8.870;2023-04-01T03:54:59;0.53;;;0.30;;
11000;SDS011;5553;48.506;8.870;2023-04-01T03:57:30;0.40;;;0.30;;
11000;SDS011;5553;48.506;8.870;2023-04-01T03:59:58;0.97;;;0.40;;
11000;SDS011;5553;48.506;8.870;2023-04-01T04:02:29;0.63;;;0.50;;
11000;SDS011;5553;48.506;8.870;2023-04-01T04:04:57;3.50;;;0.40;;
11000;SDS011;5553;48.506;8.870;2023-04-01T04:07:26;1.63;;;0.40;;
11000;SDS011;5553;48.506;8.870;2023-04-01T04:09:54;1.13;;;0.33;;
11000;SDS011;5553;48.506;8.870;2023-04-01T04:12:22;5.50;;;2.13;;
11000;SDS011;5553;48.506;8.870;2023-04-01T04:14:51;6.83;;;2.77;;
11000;SDS011;5553;48.506;8.870;2023-04-01T04:17:19;7.70;;;3.40;;
11000;SDS011;5553;48.506;8.870;2023-04-01T04:19:50;3.27;;;1.40;;
11000;SDS011;5553;48.506;8.870;2023-04-01T04:22:18;2.90;;;1.57;;
11000;SDS011;5553;48.506;8.870;2023-04-01T04:24:46;1.43;;;0.70;;
11000;SDS011;5553;48.506;8.870;2023-04-01T04:27:14;0.90;;;0.67;;
11000;SDS011;5553;48.506;8.870;2023-04-01T04:29:43;1.83;;;0.70;;
11000;SDS011;5553;48.506;8.870;2023-04-01T04:32:11;2.60;;;0.87;;
11000;SDS011;5553;48.506;8.870;2023-04-01T04:34:39;2.43;;;0.60;;
11000;SDS011;5553;48.506;8.870;2023-04-01T04:37:10;1.07;;;0.30;;
11000;SDS011;5553;48.506;8.870;2023-04-01T04:39:39;1.23;;;0.27;;
11000;SDS011;5553;48.506;8.870;2023-04-01T04:42:07;0.50;;;0.27;;
11000;SDS011;5553;48.506;8.870;2023-04-01T04:44:35;5.50;;;0.30;;
11000;SDS011;5553;48.506;8.870;2023-04-01T04:47:03;1.13;;;0.37;;
11000;SDS011;5553;48.506;8.870;2023-04-01T04:49:32;0.83;;;0.33;;
11000;SDS011;5553;48.506;8.870;2023-04-01T04:52:00;2.00;;;0.50;;
11000;SDS011;5553;48.506;8.870;2023-04-01T04:54:31;0.40;;;0.20;;
11000;SDS011;5553;48.506;8.870;2023-04-01T04:56:59;1.17;;;0.40;;
11000;SDS011;5553;48.506;8.870;2023-04-01T04:59:28;1.00;;;0.40;;
11000;SDS011;5553;48.506;8.870;2023-04-01T05:01:56;0.60;;;0.30;;
11000;SDS011;5553;48.506;8.870;2023-04-01T05:04:25;2.83;;;0.80;;
11000;SDS011;5553;48.506;8.870;2023-04-01T05:06:53;4.00;;;0.40;;
11000;SDS011;5553;48.506;8.870;2023-04-01T05:09:21;1.00;;;0.40;;
11000;SDS011;5553;48.506;8.870;2023-04-01T05:11:52;0.80;;;0.40;;
11000;SDS011;5553;48.506;8.870;2023-04-01T05:14:20;3.07;;;0.47;;
11000;SDS011;5553;48.506;8.870;2023-04-01T05:16:48;0.40;;;0.20;;
11000;SDS011;5553;48.506;8.870;2023-04-01T05:19:17;0.63;;;0.50;;
11000;SDS011;5553;48.506;8.870;2023-04-01T05:21:45;2.30;;;0.77;;
11000;SDS011;5553;48.506;8.870;2023-04-01T05:24:13;0.60;;;0.30;;
11000;SDS011;5553;48.506;8.870;2023-04-01T05:26:41;1.80;;;0.60;;
11000;SDS011;5553;48.506;8.870;2023-04-01T05:29:12;1.70;;;0.40;;
11000;SDS011;5553;48.506;8.870;2023-04-01T05:31:40;0.60;;;0.40;;
11000;SDS011;5553;48.506;8.870;2023-04-01T05:34:09;1.80;;;0.33;;
11000;SDS011;5553;48.506;8.870;2023-04-01T05:36:37;0.70;;;0.30;;
11000;SDS011;5553;48.506;8.870;2023-04-01T05:39:06;0.97;;;0.40;;
11000;SDS011;5553;48.506;8.870;2023-04-01T05:41:35;3.10;;;0.53;;
11000;SDS011;5553;48.506;8.870;2023-04-01T05:44:05;0.50;;;0.40;;
11000;SDS011;5553;48.506;8.870;2023-04-01T05:46:36;1.10;;;0.47;;
11000;SDS011;5553;48.506;8.870;2023-04-01T05:49:04;1.17;;;0.40;;
11000;SDS011;5553;48.506;8.870;2023-04-01T05:51:32;0.57;;;0.40;;
11000;SDS011;5553;48.506;8.870;2023-04-01T05:54:01;0.80;;;0.43;;
11000;SDS011;5553;48.506;8.870;2023-04-01T05:56:29;0.70;;;0.30;;
11000;SDS011;5553;48.506;8.870;2023-04-01T05:58:57;2.40;;;0.70;;
11000;SDS011;5553;48.506;8.870;2023-04-01T06:01:25;8.00;;;0.63;;
11000;SDS011;5553;48.506;8.870;2023-04-01T06:03:56;0.73;;;0.50;;
11000;SDS011;5553;48.506;8.870;2023-04-01T06:06:25;0.63;;;0.30;;
11000;SDS011;5553;48.506;8.870;2023-04-01T06:08:56;1.70;;;0.50;;
11000;SDS011;5553;48.506;8.870;2023-04-01T06:11:28;2.30;;;0.77;;
11000;SDS011;5553;48.506;8.870;2023-04-01T06:14:12;2.63;;;0.43;;
11000;SDS011;5553;48.506;8.870;2023-04-01T06:16:57;0.40;;;0.30;;
11000;SDS011;5553;48.506;8.870;2023-04-01T06:19:44;1.17;;;0.53;;
11000;SDS011;5553;48.506;8.870;2023-04-01T06:22:26;2.10;;;0.30;;
11000;SDS011;5553;48.506;8.870;2023-04-01T06:28:00;0.50;;;0.30;;
11000;SDS011;5553;48.506;8.870;2023-04-01T06:30:52;1.47;;;0.30;;
11000;SDS011;5553;48.506;8.870;2023-04-01T06:33:30;2.10;;;0.60;;
11000;SDS011;5553;48.506;8.870;2023-04-01T06:36:18;1.23;;;0.30;;
11000;SDS011;5553;48.506;8.870;2023-04-01T06:42:08;1.33;;;0.50;;
11000;SDS011;5553;48.506;8.870;2023-04-01T06:44:51;1.30;;;0.50;;
11000;SDS011;5553;48.506;8.870;2023-04-01T06:47:37;0.57;;;0.40;;
11000;SDS011;5553;48.506;8.870;2023-04-01T06:50:18;1.80;;;0.50;;
11000;SDS011;5553;48.506;8.870;2023-04-01T06:52:54;0.80;;;0.37;;
11000;SDS011;5553;48.506;8.870;2023-04-01T06:55:29;0.37;;;0.33;;
11000;SDS011;5553;48.506;8.870;2023-04-01T06:58:03;1.00;;;0.60;;
11000;SDS011;5553;48.506;8.870;2023-04-01T07:00:34;0.47;;;0.40;;
11000;SDS011;5553;48.506;8.870;2023-04-01T07:03:06;0.30;;;0.30;;
11000;SDS011;5553;48.506;8.870;2023-04-01T07:05:44;0.67;;;0.30;;
11000;SDS011;5553;48.506;8.870;2023-04-01T07:08:17;1.17;;;0.30;;
11000;SDS011;5553;48.506;8.870;2023-04-01T07:10:50;1.47;;;0.30;;
11000;SDS011;5553;48.506;8.870;2023-04-01T07:13:24;0.83;;;0.30;;
11000;SDS011;5553;48.506;8.870;2023-04-01T07:15:58;0.60;;;0.50;;
11000;SDS011;5553;48.506;8.870;2023-04-01T07:18:34;1.53;;;0.50;;
11000;SDS011;5553;48.506;8.870;2023-04-01T07:21:08;0.63;;;0.30;;
11000;SDS011;5553;48.506;8.870;2023-04-01T07:23:46;1.53;;;0.40;;
11000;SDS011;5553;48.506;8.870;2023-04-01T07:26:17;2.60;;;0.80;;
11000;SDS011;5553;48.506;8.870;2023-04-01T07:28:48;1.10;;;0.50;;
11000;SDS011;5553;48.506;8.870;2023-04-01T07:31:20;0.67;;;0.37;;
11000;SDS011;5553;48.506;8.870;2023-04-01T07:33:58;1.57;;;0.67;;
11000;SDS011;5553;48.506;8.870;2023-04-01T07:36:32;4.80;;;0.50;;
11000;SDS011;5553;48.506;8.870;2023-04-01T07:39:12;2.50;;;0.90;;
11000;SDS011;5553;48.506;8.870;2023-04-01T07:41:55;1.07;;;0.40;;
11000;SDS011;5553;48.506;8.870;2023-04-01T07:44:32;0.87;;;0.70;;
11000;SDS011;5553;48.506;8.870;2023-04-01T07:47:09;1.63;;;0.50;;
11000;SDS011;5553;48.506;8.870;2023-04-01T07:49:52;1.40;;;0.30;;
11000;SDS011;5553;48.506;8.870;2023-04-01T07:52:31;1.43;;;0.60;;
11000;SDS011;5553;48.506;8.870;2023-04-01T07:55:07;1.03;;;0.53;;
11000;SDS011;5553;48.506;8.870;2023-04-01T07:57:43;3.40;;;0.50;;
11000;SDS011;5553;48.506;8.870;2023-04-01T08:00:19;1.03;;;0.30;;
11000;SDS011;5553;48.506;8.870;2023-04-01T08:02:54;1.07;;;0.63;;
11000;SDS011;5553;48.506;8.870;2023-04-01T08:05:37;0.70;;;0.40;;
11000;SDS011;5553;48.506;8.870;2023-04-01T08:08:14;1.00;;;0.27;;
11000;SDS011;5553;48.506;8.870;2023-04-01T08:10:51;1.37;;;0.50;;
11000;SDS011;5553;48.506;8.870;2023-04-01T08:13:25;1.13;;;0.50;;
11000;SDS011;5553;48.506;8.870;2023-04-01T08:16:06;1.47;;;0.33;;
11000;SDS011;5553;48.506;8.870;2023-04-01T08:18:41;0.60;;;0.40;;
11000;SDS011;5553;48.506;8.870;2023-04-01T08:21:14;1.33;;;0.40;;
11000;SDS011;5553;48.506;8.870;2023-04-01T08:23:49;0.60;;;0.40;;
11000;SDS011;5553;48.506;8.870;2023-04-01T08:26:26;1.27;;;0.40;;
11000;SDS011;5553;48.506;8.870;2023-04-01T08:28:59;0.60;;;0.50;;
11000;SDS011;5553;48.506;8.870;2023-04-01T08:31:32;0.63;;;0.30;;
11000;SDS011;5553;48.506;8.870;2023-04-01T08:34:04;0.50;;;0.30;;
11000;SDS011;5553;48.506;8.870;2023-04-01T08:36:43;6.00;;;0.50;;
11000;SDS011;5553;48.506;8.870;2023-04-01T08:39:16;0.97;;;0.60;;
11000;SDS011;5553;48.506;8.870;2023-04-01T08:42:04;1.43;;;0.30;;
11000;SDS011;5553;48.506;8.870;2023-04-01T08:44:59;0.90;;;0.30;;
11000;SDS011;5553;48.506;8.870;2023-04-01T08:47:49;1.90;;;1.27;;
11000;SDS011;5553;48.506;8.870;2023-04-01T08:53:25;1.67;;;0.40;;
11000;SDS011;5553;48.506;8.870;2023-04-01T08:56:06;1.17;;;0.20;;
11000;SDS011;5553;48.506;8.870;2023-04-01T08:58:48;0.50;;;0.40;;
11000;SDS011;5553;48.506;8.870;2023-04-01T09:01:37;0.40;;;0.30;;
11000;SDS011;5553;48.506;8.870;2023-04-01T09:04:33;2.00;;;0.30;;
11000;SDS011;5553;48.506;8.870;2023-04-01T09:07:16;1.23;;;0.37;;
11000;SDS011;5553;48.506;8.870;2023-04-01T09:13:15;1.37;;;0.53;;
11000;SDS011;5553;48.506;8.870;2023-04-01T09:19:05;0.93;;;0.50;;
11000;SDS011;5553;48.506;8.870;2023-04-01T09:21:50;0.30;;;0.30;;
11000;SDS011;5553;48.506;8.870;2023-04-01T09:24:40;1.27;;;0.30;;
11000;SDS011;5553;48.506;8.870;2023-04-01T09:27:30;2.63;;;0.50;;
11000;SDS011;5553;48.506;8.870;2023-04-01T09:33:15;0.40;;;0.30;;
11000;SDS011;5553;48.506;8.870;2023-04-01T09:36:07;1.03;;;0.53;;
11000;SDS011;5553;48.506;8.870;2023-04-01T09:38:49;0.70;;;0.47;;
11000;SDS011;5553;48.506;8.870;2023-04-01T09:41:28;1.57;;;0.50;;
11000;SDS011;5553;48.506;8.870;2023-04-01T09:44:00;0.60;;;0.40;;
11000;SDS011;5553;48.506;8.870;2023-04-01T09:46:34;0.97;;;0.30;;
11000;SDS011;5553;48.506;8.870;2023-04-01T09:49:29;0.60;;;0.30;;
11000;SDS011;5553;48.506;8.870;2023-04-01T09:52:24;1.93;;;0.60;;
11000;SDS011;5553;48.506;8.870;2023-04-01T09:55:02;0.60;;;0.27;;
11000;SDS011;5553;48.506;8.870;2023-04-01T09:57:52;0.40;;;0.20;;
11000;SDS011;5553;48.506;8.870;2023-04-01T10:01:00;0.50;;;0.30;;
11000;SDS011;5553;48.506;8.870;2023-04-01T10:15:59;0.60;;;0.30;;
11000;SDS011;5553;48.506;8.870;2023-04-01T10:18:52;1.27;;;0.33;;
11000;SDS011;5553;48.506;8.870;2023-04-01T10:21:46;0.40;;;0.40;;
11000;SDS011;5553;48.506;8.870;2023-04-01T10:28:10;1.17;;;0.20;;
11000;SDS011;5553;48.506;8.870;2023-04-01T10:31:02;0.40;;;0.30;;
11000;SDS011;5553;48.506;8.870;2023-04-01T10:33:53;0.40;;;0.20;;
11000;SDS011;5553;48.506;8.870;2023-04-01T10:36:47;3.57;;;0.30;;
11000;SDS011;5553;48.506;8.870;2023-04-01T10:51:52;2.30;;;0.40;;
11000;SDS011;5553;48.506;8.870;2023-04-01T10:54:48;0.60;;;0.33;;
11000;SDS011;5553;48.506;8.870;2023-04-01T10:57:32;0.50;;;0.30;;
11000;SDS011;5553;48.506;8.870;2023-04-01T11:00:32;0.50;;;0.20;;
11000;SDS011;5553;48.506;8.870;2023-04-01T11:03:33;0.30;;;0.23;;
11000;SDS011;5553;48.506;8.870;2023-04-01T11:13:17;0.50;;;0.30;;
11000;SDS011;5553;48.506;8.870;2023-04-01T11:19:22;0.60;;;0.30;;
11000;SDS011;5553;48.506;8.870;2023-04-01T11:21:58;0.83;;;0.20;;
11000;SDS011;5553;48.506;8.870;2023-04-01T11:24:41;0.50;;;0.30;;
11000;SDS011;5553;48.506;8.870;2023-04-01T11:29:50;0.40;;;0.20;;
11000;SDS011;5553;48.506;8.870;2023-04-01T11:38:32;1.27;;;0.20;;
11000;SDS011;5553;48.506;8.870;2023-04-01T11:41:14;1.33;;;0.20;;
11000;SDS011;5553;48.506;8.870;2023-04-01T11:43:54;1.33;;;0.50;;
11000;SDS011;5553;48.506;8.870;2023-04-01T11:46:33;0.30;;;0.20;;
11000;SDS011;5553;48.506;8.870;2023-04-01T11:49:21;0.40;;;0.30;;
11000;SDS011;5553;48.506;8.870;2023-04-01T11:52:05;0.40;;;0.30;;
11000;SDS011;5553;48.506;8.870;2023-04-01T11:54:55;0.40;;;0.30;;
11000;SDS011;5553;48.506;8.870;2023-04-01T11:57:46;0.57;;;0.30;;
11000;SDS011;5553;48.506;8.870;2023-04-01T12:00:28;0.60;;;0.30;;
11000;SDS011;5553;48.506;8.870;2023-04-01T12:03:21;0.53;;;0.40;;
11000;SDS011;5553;48.506;8.870;2023-04-01T12:06:11;0.40;;;0.30;;
11000;SDS011;5553;48.506;8.870;2023-04-01T12:08:49;0.60;;;0.30;;
11000;SDS011;5553;48.506;8.870;2023-04-01T12:11:24;0.30;;;0.20;;
11000;SDS011;5553;48.506;8.870;2023-04-01T12:14:02;0.50;;;0.20;;
11000;SDS011;5553;48.506;8.870;2023-04-01T12:16:45;0.60;;;0.30;;
11000;SDS011;5553;48.506;8.870;2023-04-01T12:19:23;0.50;;;0.27;;
11000;SDS011;5553;48.506;8.870;2023-04-01T12:22:07;1.10;;;0.30;;
11000;SDS011;5553;48.506;8.870;2023-04-01T12:24:56;0.40;;;0.20;;
11000;SDS011;5553;48.506;8.870;2023-04-01T12:27:38;0.43;;;0.30;;
11000;SDS011;5553;48.506;8.870;2023-04-01T12:30:21;0.40;;;0.30;;
11000;SDS011;5553;48.506;8.870;2023-04-01T12:33:04;0.30;;;0.20;;
11000;SDS011;5553;48.506;8.870;2023-04-01T12:35:49;0.30;;;0.20;;
11000;SDS011;5553;48.506;8.870;2023-04-01T12:38:31;0.70;;;0.30;;
11000;SDS011;5553;48.506;8.870;2023-04-01T12:41:13;1.10;;;0.20;;
11000;SDS011;5553;48.506;8.870;2023-04-01T12:46:44;0.33;;;0.20;;
11000;SDS011;5553;48.506;8.870;2023-04-01T12:49:38;0.40;;;0.20;;
11000;SDS011;5553;48.506;8.870;2023-04-01T12:52:22;0.53;;;0.47;;
11000;SDS011;5553;48.506;8.870;2023-04-01T12:55:03;0.30;;;0.20;;
11000;SDS011;5553;48.506;8.870;2023-04-01T13:01:05;0.30;;;0.20;;
11000;SDS011;5553;48.506;8.870;2023-04-01T13:03:49;4.07;;;0.50;;
11000;SDS011;5553;48.506;8.870;2023-04-01T15:35:38;0.40;;;0.30;;
11000;SDS011;5553;48.506;8.870;2023-04-01T15:38:18;1.00;;;0.43;;
11000;SDS011;5553;48.506;8.870;2023-04-01T15:40:55;1.27;;;0.30;;
11000;SDS011;5553;48.506;8.870;2023-04-01T15:43:32;1.73;;;0.70;;
11000;SDS011;5553;48.506;8.870;2023-04-01T15:46:11;0.40;;;0.20;;
11000;SDS011;5553;48.506;8.870;2023-04-01T15:48:52;2.13;;;0.63;;
11000;SDS011;5553;48.506;8.870;2023-04-01T15:51:36;0.50;;;0.40;;
11000;SDS011;5553;48.506;8.870;2023-04-01T15:57:32;1.07;;;0.53;;
11000;SDS011;5553;48.506;8.870;2023-04-01T16:03:07;0.60;;;0.40;;
11000;SDS011;5553;48.506;8.870;2023-04-01T16:05:47;0.80;;;0.47;;
11000;SDS011;5553;48.506;8.870;2023-04-01T16:08:39;0.40;;;0.40;;
11000;SDS011;5553;48.506;8.870;2023-04-01T16:11:18;1.37;;;0.50;;
11000;SDS011;5553;48.506;8.870;2023-04-01T16:13:59;1.23;;;0.30;;
11000;SDS011;5553;48.506;8.870;2023-04-01T16:16:42;0.60;;;0.40;;
11000;SDS011;5553;48.506;8.870;2023-04-01T16:19:25;0.43;;;0.40;;
11000;SDS011;5553;48.506;8.870;2023-04-01T16:22:13;0.80;;;0.50;;
11000;SDS011;5553;48.506;8.870;2023-04-01T16:24:50;1.17;;;0.80;;
11000;SDS011;5553;48.506;8.870;2023-04-01T16:27:24;0.83;;;0.50;;
11000;SDS011;5553;48.506;8.870;2023-04-01T16:30:03;0.60;;;0.60;;
11000;SDS011;5553;48.506;8.870;2023-04-01T16:32:54;2.40;;;0.40;;
11000;SDS011;5553;48.506;8.870;2023-04-01T16:35:31;0.90;;;0.57;;
11000;SDS011;5553;48.506;8.870;2023-04-01T16:38:12;1.63;;;0.53;;
11000;SDS011;5553;48.506;8.870;2023-04-01T16:40:53;1.10;;;0.70;;
11000;SDS011;5553;48.506;8.870;2023-04-01T16:43:35;0.83;;;0.53;;
11000;SDS011;5553;48.506;8.870;2023-04-01T16:46:17;0.97;;;0.80;;
11000;SDS011;5553;48.506;8.870;2023-04-01T16:48:58;0.67;;;0.60;;
11000;SDS011;5553;48.506;8.870;2023-04-01T16:51:32;2.53;;;0.60;;
11000;SDS011;5553;48.506;8.870;2023-04-01T16:54:06;1.20;;;0.80;;
11000;SDS011;5553;48.506;8.870;2023-04-01T16:56:45;3.27;;;0.70;;
11000;SDS011;5553;48.506;8.870;2023-04-01T16:59:19;1.43;;;0.67;;
11000;SDS011;5553;48.506;8.870;2023-04-01T17:01:53;5.23;;;1.40;;
11000;SDS011;5553;48.506;8.870;2023-04-01T17:04:31;2.97;;;0.90;;
11000;SDS011;5553;48.506;8.870;2023-04-01T17:07:11;0.77;;;0.77;;
11000;SDS011;5553;48.506;8.870;2023-04-01T17:09:59;0.80;;;0.50;;
11000;SDS011;5553;48.506;8.870;2023-04-01T17:12:38;0.70;;;0.70;;
11000;SDS011;5553;48.506;8.870;2023-04-01T17:15:17;1.10;;;0.53;;
11000;SDS011;5553;48.506;8.870;2023-04-01T17:17:57;0.70;;;0.60;;
11000;SDS011;5553;48.506;8.870;2023-04-01T17:20:34;0.90;;;0.60;;
11000;SDS011;5553;48.506;8.870;2023-04-01T17:23:12;0.50;;;0.50;;
11000;SDS011;5553;48.506;8.870;2023-04-01T17:25:49;2.77;;;0.80;;
11000;SDS011;5553;48.506;8.870;2023-04-01T17:28:32;0.87;;;0.50;;
11000;SDS011;5553;48.506;8.870;2023-04-01T17:31:11;0.80;;;0.43;;
11000;SDS011;5553;48.506;8.870;2023-04-01T17:37:06;2.87;;;0.67;;
11000;SDS011;5553;48.506;8.870;2023-04-01T17:39:49;1.43;;;0.37;;
11000;SDS011;5553;48.506;8.870;2023-04-01T17:42:33;0.50;;;0.40;;
11000;SDS011;5553;48.506;8.870;2023-04-01T17:45:16;0.87;;;0.50;;
11000;SDS011;5553;48.506;8.870;2023-04-01T17:48:03;0.60;;;0.40;;
11000;SDS011;5553;48.506;8.870;2023-04-01T17:50:44;0.80;;;0.43;;
11000;SDS011;5553;48.506;8.870;2023-04-01T17:53:35;0.90;;;0.50;;
11000;SDS011;5553;48.506;8.870;2023-04-01T17:56:14;0.50;;;0.40;;
11000;SDS011;5553;48.506;8.870;2023-04-01T17:58:52;2.67;;;0.50;;
11000;SDS011;5553;48.506;8.870;2023-04-01T18:01:38;0.40;;;0.30;;
11000;SDS011;5553;48.506;8.870;2023-04-01T18:07:22;1.00;;;0.60;;
11000;SDS011;5553;48.506;8.870;2023-04-01T18:10:10;2.00;;;0.50;;
11000;SDS011;5553;48.506;8.870;2023-04-01T18:12:54;0.70;;;0.40;;
11000;SDS011;5553;48.506;8.870;2023-04-01T18:15:37;2.23;;;0.50;;
11000;SDS011;5553;48.506;8.870;2023-04-01T18:18:24;0.97;;;0.43;;
11000;SDS011;5553;48.506;8.870;2023-04-01T18:21:04;0.67;;;0.50;;
11000;SDS011;5553;48.506;8.870;2023-04-01T18:23:43;1.10;;;0.33;;
